sensor_id;sensor_type;location;lat;lon;timestamp;P1;durP1;ratioP1;P2;durP2;ratioP2
6197;SDS011;3132;42.622;23.328;2023-12-07T00:00:09;78.23;;;40.00;;
6197;SDS011;3132;42.622;23.328;2023-12-07T00:02:34;83.13;;;40.30;;
6197;SDS011;3132;42.622;23.328;2023-12-07T00:05:00;66.57;;;34.00;;
6197;SDS011;3132;42.622;23.328;2023-12-07T00:07:25;61.90;;;36.07;;
6197;SDS011;3132;42.622;23.328;2023-12-07T00:09:50;60.73;;;34.70;;
6197;SDS011;3132;42.622;23.328;2023-12-07T00:12:16;67.00;;;36.17;;
6197;SDS011;3132;42.622;23.328;2023-12-07T00:14:42;58.67;;;33.03;;
6197;SDS011;3132;42.622;23.328;2023-12-07T00:17:07;60.47;;;34.50;;
6197;SDS011;3132;42.622;23.328;2023-12-07T00:19:32;58.67;;;33.87;;
6197;SDS011;3132;42.622;23.328;2023-12-07T00:21:58;61.27;;;32.07;;
6197;SDS011;3132;42.622;23.328;2023-12-07T00:24:23;60.60;;;36.13;;
6197;SDS011;3132;42.622;23.328;2023-12-07T00:26:49;66.53;;;33.73;;
6197;SDS011;3132;42.622;23.328;2023-12-07T00:29:15;59.40;;;31.97;;
6197;SDS011;3132;42.622;23.328;2023-12-07T00:31:40;55.33;;;32.07;;
6197;SDS011;3132;42.622;23.328;2023-12-07T00:34:06;56.13;;;33.20;;
6197;SDS011;3132;42.622;23.328;2023-12-07T00:36:31;53.13;;;31.73;;
6197;SDS011;3132;42.622;23.328;2023-12-07T00:38:57;57.40;;;32.47;;
6197;SDS011;3132;42.622;23.328;2023-12-07T00:41:22;55.57;;;32.40;;
6197;SDS011;3132;42.622;23.328;2023-12-07T00:43:47;58.93;;;32.17;;
6197;SDS011;3132;42.622;23.328;2023-12-07T00:46:13;62.57;;;33.10;;
6197;SDS011;3132;42.622;23.328;2023-12-07T00:48:38;59.90;;;32.43;;
6197;SDS011;3132;42.622;23.328;2023-12-07T00:51:04;54.97;;;30.17;;
6197;SDS011;3132;42.622;23.328;2023-12-07T00:53:31;52.10;;;30.10;;
6197;SDS011;3132;42.622;23.328;2023-12-07T00:55:56;54.47;;;30.93;;
6197;SDS011;3132;42.622;23.328;2023-12-07T00:58:22;51.63;;;30.10;;
6197;SDS011;3132;42.622;23.328;2023-12-07T01:00:48;50.07;;;31.50;;
6197;SDS011;3132;42.622;23.328;2023-12-07T01:03:13;47.20;;;28.97;;
6197;SDS011;3132;42.622;23.328;2023-12-07T01:05:39;53.67;;;30.10;;
6197;SDS011;3132;42.622;23.328;2023-12-07T01:08:04;51.60;;;29.43;;
6197;SDS011;3132;42.622;23.328;2023-12-07T01:10:29;50.20;;;29.17;;
6197;SDS011;3132;42.622;23.328;2023-12-07T01:12:55;48.30;;;27.53;;
6197;SDS011;3132;42.622;23.328;2023-12-07T01:15:20;50.17;;;28.93;;
6197;SDS011;3132;42.622;23.328;2023-12-07T01:17:45;48.87;;;29.00;;
6197;SDS011;3132;42.622;23.328;2023-12-07T01:20:11;46.70;;;27.97;;
6197;SDS011;3132;42.622;23.328;2023-12-07T01:22:40;44.67;;;27.27;;
6197;SDS011;3132;42.622;23.328;2023-12-07T01:25:06;43.60;;;27.10;;
6197;SDS011;3132;42.622;23.328;2023-12-07T01:27:32;41.33;;;27.07;;
6197;SDS011;3132;42.622;23.328;2023-12-07T01:29:57;41.83;;;26.57;;
6197;SDS011;3132;42.622;23.328;2023-12-07T01:32:23;44.37;;;27.53;;
6197;SDS011;3132;42.622;23.328;2023-12-07T01:34:48;43.93;;;28.57;;
6197;SDS011;3132;42.622;23.328;2023-12-07T01:37:13;44.00;;;26.50;;
6197;SDS011;3132;42.622;23.328;2023-12-07T01:39:40;40.37;;;25.87;;
6197;SDS011;3132;42.622;23.328;2023-12-07T01:42:07;39.07;;;26.03;;
6197;SDS011;3132;42.622;23.328;2023-12-07T01:44:33;37.50;;;23.77;;
6197;SDS011;3132;42.622;23.328;2023-12-07T01:46:59;33.63;;;23.80;;
6197;SDS011;3132;42.622;23.328;2023-12-07T01:49:24;33.20;;;24.57;;
6197;SDS011;3132;42.622;23.328;2023-12-07T01:51:50;37.03;;;23.80;;
6197;SDS011;3132;42.622;23.328;2023-12-07T01:54:15;34.97;;;25.90;;
6197;SDS011;3132;42.622;23.328;2023-12-07T01:56:41;36.93;;;25.57;;
6197;SDS011;3132;42.622;23.328;2023-12-07T01:59:07;36.17;;;23.83;;
6197;SDS011;3132;42.622;23.328;2023-12-07T02:01:33;32.77;;;24.13;;
6197;SDS011;3132;42.622;23.328;2023-12-07T02:03:58;32.73;;;23.17;;
6197;SDS011;3132;42.622;23.328;2023-12-07T02:06:24;35.47;;;25.43;;
6197;SDS011;3132;42.622;23.328;2023-12-07T02:08:49;33.13;;;23.80;;
6197;SDS011;3132;42.622;23.328;2023-12-07T02:11:15;36.50;;;24.37;;
6197;SDS011;3132;42.622;23.328;2023-12-07T02:13:40;31.33;;;24.20;;
6197;SDS011;3132;42.622;23.328;2023-12-07T02:16:18;33.80;;;24.70;;
6197;SDS011;3132;42.622;23.328;2023-12-07T02:19:25;32.23;;;23.13;;
6197;SDS011;3132;42.622;23.328;2023-12-07T02:22:06;28.97;;;22.67;;
6197;SDS011;3132;42.622;23.328;2023-12-07T02:24:37;32.87;;;23.00;;
6197;SDS011;3132;42.622;23.328;2023-12-07T02:27:02;26.90;;;21.80;;
6197;SDS011;3132;42.622;23.328;2023-12-07T02:29:28;28.97;;;22.00;;
6197;SDS011;3132;42.622;23.328;2023-12-07T02:31:53;27.80;;;22.87;;
6197;SDS011;3132;42.622;23.328;2023-12-07T02:34:18;25.27;;;21.17;;
6197;SDS011;3132;42.622;23.328;2023-12-07T02:36:44;28.50;;;22.57;;
6197;SDS011;3132;42.622;23.328;2023-12-07T02:39:13;28.63;;;22.10;;
6197;SDS011;3132;42.622;23.328;2023-12-07T02:41:39;25.70;;;21.73;;
6197;SDS011;3132;42.622;23.328;2023-12-07T02:44:05;30.50;;;22.30;;
6197;SDS011;3132;42.622;23.328;2023-12-07T02:46:32;28.27;;;20.33;;
6197;SDS011;3132;42.622;23.328;2023-12-07T02:48:58;25.87;;;21.27;;
6197;SDS011;3132;42.622;23.328;2023-12-07T02:51:24;26.10;;;21.07;;
6197;SDS011;3132;42.622;23.328;2023-12-07T02:53:49;27.83;;;20.50;;
6197;SDS011;3132;42.622;23.328;2023-12-07T02:56:15;24.67;;;19.87;;
6197;SDS011;3132;42.622;23.328;2023-12-07T02:58:40;27.63;;;20.70;;
6197;SDS011;3132;42.622;23.328;2023-12-07T03:01:06;27.37;;;20.63;;
6197;SDS011;3132;42.622;23.328;2023-12-07T03:03:31;25.60;;;21.37;;
6197;SDS011;3132;42.622;23.328;2023-12-07T03:05:56;26.37;;;20.20;;
6197;SDS011;3132;42.622;23.328;2023-12-07T03:08:22;25.97;;;20.50;;
6197;SDS011;3132;42.622;23.328;2023-12-07T03:10:47;24.63;;;19.77;;
6197;SDS011;3132;42.622;23.328;2023-12-07T03:13:13;28.43;;;21.20;;
6197;SDS011;3132;42.622;23.328;2023-12-07T03:15:38;28.77;;;22.47;;
6197;SDS011;3132;42.622;23.328;2023-12-07T03:18:04;34.67;;;24.60;;
6197;SDS011;3132;42.622;23.328;2023-12-07T03:20:30;38.40;;;26.87;;
6197;SDS011;3132;42.622;23.328;2023-12-07T03:22:56;41.73;;;27.80;;
6197;SDS011;3132;42.622;23.328;2023-12-07T03:25:21;42.63;;;25.97;;
6197;SDS011;3132;42.622;23.328;2023-12-07T03:27:46;43.47;;;26.73;;
6197;SDS011;3132;42.622;23.328;2023-12-07T03:30:12;47.20;;;29.33;;
6197;SDS011;3132;42.622;23.328;2023-12-07T03:32:38;45.27;;;29.90;;
6197;SDS011;3132;42.622;23.328;2023-12-07T03:35:03;49.57;;;30.77;;
6197;SDS011;3132;42.622;23.328;2023-12-07T03:37:29;43.60;;;28.03;;
6197;SDS011;3132;42.622;23.328;2023-12-07T03:39:54;47.33;;;29.47;;
6197;SDS011;3132;42.622;23.328;2023-12-07T03:42:19;54.10;;;31.33;;
6197;SDS011;3132;42.622;23.328;2023-12-07T03:44:45;51.67;;;30.60;;
6197;SDS011;3132;42.622;23.328;2023-12-07T03:47:10;56.50;;;29.83;;
6197;SDS011;3132;42.622;23.328;2023-12-07T03:49:36;57.10;;;31.10;;
6197;SDS011;3132;42.622;23.328;2023-12-07T03:52:03;55.63;;;30.73;;
6197;SDS011;3132;42.622;23.328;2023-12-07T03:54:28;56.77;;;31.07;;
6197;SDS011;3132;42.622;23.328;2023-12-07T03:56:53;50.53;;;29.97;;
6197;SDS011;3132;42.622;23.328;2023-12-07T03:59:19;51.67;;;30.70;;
6197;SDS011;3132;42.622;23.328;2023-12-07T04:01:44;50.83;;;29.47;;
6197;SDS011;3132;42.622;23.328;2023-12-07T04:04:10;49.87;;;31.00;;
6197;SDS011;3132;42.622;23.328;2023-12-07T04:06:35;50.40;;;29.50;;
6197;SDS011;3132;42.622;23.328;2023-12-07T04:09:00;45.23;;;29.17;;
6197;SDS011;3132;42.622;23.328;2023-12-07T04:11:26;43.13;;;27.87;;
6197;SDS011;3132;42.622;23.328;2023-12-07T04:13:51;45.60;;;28.93;;
6197;SDS011;3132;42.622;23.328;2023-12-07T04:16:17;48.03;;;30.07;;
6197;SDS011;3132;42.622;23.328;2023-12-07T04:18:42;43.97;;;28.83;;
6197;SDS011;3132;42.622;23.328;2023-12-07T04:21:08;51.20;;;28.13;;
6197;SDS011;3132;42.622;23.328;2023-12-07T04:23:33;44.57;;;28.30;;
6197;SDS011;3132;42.622;23.328;2023-12-07T04:25:58;40.73;;;27.60;;
6197;SDS011;3132;42.622;23.328;2023-12-07T04:28:24;39.00;;;26.70;;
6197;SDS011;3132;42.622;23.328;2023-12-07T04:30:49;39.23;;;25.50;;
6197;SDS011;3132;42.622;23.328;2023-12-07T04:33:15;38.30;;;26.60;;
6197;SDS011;3132;42.622;23.328;2023-12-07T04:35:40;40.67;;;26.53;;
6197;SDS011;3132;42.622;23.328;2023-12-07T04:38:05;42.73;;;28.33;;
6197;SDS011;3132;42.622;23.328;2023-12-07T04:40:31;44.03;;;27.97;;
6197;SDS011;3132;42.622;23.328;2023-12-07T04:42:56;42.90;;;28.20;;
6197;SDS011;3132;42.622;23.328;2023-12-07T04:45:21;44.73;;;27.33;;
6197;SDS011;3132;42.622;23.328;2023-12-07T04:47:47;39.30;;;26.77;;
6197;SDS011;3132;42.622;23.328;2023-12-07T04:50:12;42.10;;;28.20;;
6197;SDS011;3132;42.622;23.328;2023-12-07T04:52:38;40.33;;;27.10;;
6197;SDS011;3132;42.622;23.328;2023-12-07T04:55:04;48.37;;;29.27;;
6197;SDS011;3132;42.622;23.328;2023-12-07T04:57:33;39.97;;;27.43;;
6197;SDS011;3132;42.622;23.328;2023-12-07T04:59:59;46.13;;;27.27;;
6197;SDS011;3132;42.622;23.328;2023-12-07T05:02:24;45.87;;;26.77;;
6197;SDS011;3132;42.622;23.328;2023-12-07T05:04:50;43.77;;;26.53;;
6197;SDS011;3132;42.622;23.328;2023-12-07T05:07:16;48.53;;;28.53;;
6197;SDS011;3132;42.622;23.328;2023-12-07T05:09:42;50.17;;;29.30;;
6197;SDS011;3132;42.622;23.328;2023-12-07T05:12:07;44.67;;;27.00;;
6197;SDS011;3132;42.622;23.328;2023-12-07T05:14:33;40.17;;;26.43;;
6197;SDS011;3132;42.622;23.328;2023-12-07T05:17:00;50.40;;;30.30;;
6197;SDS011;3132;42.622;23.328;2023-12-07T05:19:25;47.60;;;31.73;;
6197;SDS011;3132;42.622;23.328;2023-12-07T05:21:51;47.43;;;27.93;;
6197;SDS011;3132;42.622;23.328;2023-12-07T05:24:17;40.97;;;26.10;;
6197;SDS011;3132;42.622;23.328;2023-12-07T05:26:43;38.83;;;26.27;;
6197;SDS011;3132;42.622;23.328;2023-12-07T05:29:11;34.33;;;25.47;;
6197;SDS011;3132;42.622;23.328;2023-12-07T05:31:36;34.27;;;25.63;;
6197;SDS011;3132;42.622;23.328;2023-12-07T05:34:02;33.10;;;22.73;;
6197;SDS011;3132;42.622;23.328;2023-12-07T05:36:28;32.57;;;25.40;;
6197;SDS011;3132;42.622;23.328;2023-12-07T05:38:54;31.03;;;23.47;;
6197;SDS011;3132;42.622;23.328;2023-12-07T05:41:19;32.27;;;24.10;;
6197;SDS011;3132;42.622;23.328;2023-12-07T05:43:45;29.10;;;23.17;;
6197;SDS011;3132;42.622;23.328;2023-12-07T05:46:10;35.23;;;22.93;;
6197;SDS011;3132;42.622;23.328;2023-12-07T05:48:35;29.17;;;23.97;;
6197;SDS011;3132;42.622;23.328;2023-12-07T05:51:02;38.87;;;31.03;;
6197;SDS011;3132;42.622;23.328;2023-12-07T05:53:27;34.23;;;26.90;;
6197;SDS011;3132;42.622;23.328;2023-12-07T05:55:54;33.37;;;26.57;;
6197;SDS011;3132;42.622;23.328;2023-12-07T05:58:19;33.67;;;26.63;;
6197;SDS011;3132;42.622;23.328;2023-12-07T06:00:44;34.67;;;26.47;;
6197;SDS011;3132;42.622;23.328;2023-12-07T06:03:11;35.53;;;26.90;;
6197;SDS011;3132;42.622;23.328;2023-12-07T06:05:40;37.63;;;26.33;;
6197;SDS011;3132;42.622;23.328;2023-12-07T06:08:06;33.10;;;26.40;;
6197;SDS011;3132;42.622;23.328;2023-12-07T06:10:31;35.43;;;25.87;;
6197;SDS011;3132;42.622;23.328;2023-12-07T06:12:57;35.23;;;24.90;;
6197;SDS011;3132;42.622;23.328;2023-12-07T06:15:25;31.20;;;24.63;;
6197;SDS011;3132;42.622;23.328;2023-12-07T06:17:51;36.20;;;24.33;;
6197;SDS011;3132;42.622;23.328;2023-12-07T06:20:17;32.77;;;26.00;;
6197;SDS011;3132;42.622;23.328;2023-12-07T06:22:42;30.00;;;23.00;;
6197;SDS011;3132;42.622;23.328;2023-12-07T06:25:07;42.90;;;29.10;;
6197;SDS011;3132;42.622;23.328;2023-12-07T06:27:34;42.20;;;29.83;;
6197;SDS011;3132;42.622;23.328;2023-12-07T06:30:02;29.60;;;24.27;;
6197;SDS011;3132;42.622;23.328;2023-12-07T06:32:30;28.63;;;23.40;;
6197;SDS011;3132;42.622;23.328;2023-12-07T06:34:56;31.20;;;23.23;;
6197;SDS011;3132;42.622;23.328;2023-12-07T06:37:21;30.17;;;22.77;;
6197;SDS011;3132;42.622;23.328;2023-12-07T06:39:47;26.83;;;22.17;;
6197;SDS011;3132;42.622;23.328;2023-12-07T06:42:14;30.33;;;23.30;;
6197;SDS011;3132;42.622;23.328;2023-12-07T06:44:39;29.00;;;23.87;;
6197;SDS011;3132;42.622;23.328;2023-12-07T06:47:04;34.03;;;25.83;;
6197;SDS011;3132;42.622;23.328;2023-12-07T06:49:30;30.77;;;24.37;;
6197;SDS011;3132;42.622;23.328;2023-12-07T06:51:56;33.33;;;24.17;;
6197;SDS011;3132;42.622;23.328;2023-12-07T06:54:21;25.10;;;20.17;;
6197;SDS011;3132;42.622;23.328;2023-12-07T06:56:47;31.90;;;23.93;;
6197;SDS011;3132;42.622;23.328;2023-12-07T06:59:12;28.63;;;23.87;;
6197;SDS011;3132;42.622;23.328;2023-12-07T07:01:37;33.83;;;24.97;;
6197;SDS011;3132;42.622;23.328;2023-12-07T07:04:03;36.73;;;26.10;;
6197;SDS011;3132;42.622;23.328;2023-12-07T07:06:29;47.30;;;33.73;;
6197;SDS011;3132;42.622;23.328;2023-12-07T07:08:54;41.97;;;28.57;;
6197;SDS011;3132;42.622;23.328;2023-12-07T07:11:19;42.00;;;29.03;;
6197;SDS011;3132;42.622;23.328;2023-12-07T07:13:45;40.43;;;29.37;;
6197;SDS011;3132;42.622;23.328;2023-12-07T07:16:10;39.23;;;28.57;;
6197;SDS011;3132;42.622;23.328;2023-12-07T07:18:39;47.70;;;32.57;;
6197;SDS011;3132;42.622;23.328;2023-12-07T07:21:05;44.50;;;32.23;;
6197;SDS011;3132;42.622;23.328;2023-12-07T07:23:31;39.90;;;30.10;;
6197;SDS011;3132;42.622;23.328;2023-12-07T07:25:56;40.93;;;29.00;;
6197;SDS011;3132;42.622;23.328;2023-12-07T07:28:22;33.50;;;25.10;;
6197;SDS011;3132;42.622;23.328;2023-12-07T07:30:47;27.67;;;20.23;;
6197;SDS011;3132;42.622;23.328;2023-12-07T07:33:12;25.53;;;21.17;;
6197;SDS011;3132;42.622;23.328;2023-12-07T07:35:38;27.80;;;20.27;;
6197;SDS011;3132;42.622;23.328;2023-12-07T07:38:03;27.10;;;20.80;;
6197;SDS011;3132;42.622;23.328;2023-12-07T07:40:28;33.13;;;24.67;;
6197;SDS011;3132;42.622;23.328;2023-12-07T07:42:54;27.63;;;23.87;;
6197;SDS011;3132;42.622;23.328;2023-12-07T07:45:19;31.20;;;24.33;;
6197;SDS011;3132;42.622;23.328;2023-12-07T07:47:45;28.73;;;21.57;;
6197;SDS011;3132;42.622;23.328;2023-12-07T07:50:10;39.97;;;25.73;;
6197;SDS011;3132;42.622;23.328;2023-12-07T07:52:36;36.10;;;26.50;;
6197;SDS011;3132;42.622;23.328;2023-12-07T07:55:02;34.97;;;24.17;;
6197;SDS011;3132;42.622;23.328;2023-12-07T07:57:30;29.60;;;23.27;;
6197;SDS011;3132;42.622;23.328;2023-12-07T07:59:58;28.00;;;22.10;;
6197;SDS011;3132;42.622;23.328;2023-12-07T08:02:24;31.20;;;24.47;;
6197;SDS011;3132;42.622;23.328;2023-12-07T08:04:50;26.97;;;20.93;;
6197;SDS011;3132;42.622;23.328;2023-12-07T08:07:16;23.20;;;20.33;;
6197;SDS011;3132;42.622;23.328;2023-12-07T08:09:42;29.77;;;20.20;;
6197;SDS011;3132;42.622;23.328;2023-12-07T08:12:07;23.90;;;21.30;;
6197;SDS011;3132;42.622;23.328;2023-12-07T08:14:35;25.30;;;20.13;;
6197;SDS011;3132;42.622;23.328;2023-12-07T08:17:01;37.30;;;24.87;;
6197;SDS011;3132;42.622;23.328;2023-12-07T08:19:26;35.77;;;24.97;;
6197;SDS011;3132;42.622;23.328;2023-12-07T08:21:52;40.57;;;25.83;;
6197;SDS011;3132;42.622;23.328;2023-12-07T08:24:17;31.03;;;24.00;;
6197;SDS011;3132;42.622;23.328;2023-12-07T08:26:43;27.27;;;20.40;;
6197;SDS011;3132;42.622;23.328;2023-12-07T08:29:08;25.83;;;20.83;;
6197;SDS011;3132;42.622;23.328;2023-12-07T08:31:33;22.37;;;19.97;;
6197;SDS011;3132;42.622;23.328;2023-12-07T08:33:59;22.87;;;18.90;;
6197;SDS011;3132;42.622;23.328;2023-12-07T08:36:25;23.67;;;20.77;;
6197;SDS011;3132;42.622;23.328;2023-12-07T08:38:51;20.40;;;18.17;;
6197;SDS011;3132;42.622;23.328;2023-12-07T08:41:16;18.07;;;16.20;;
6197;SDS011;3132;42.622;23.328;2023-12-07T08:43:41;18.40;;;16.60;;
6197;SDS011;3132;42.622;23.328;2023-12-07T08:46:07;18.30;;;16.47;;
6197;SDS011;3132;42.622;23.328;2023-12-07T08:48:33;20.23;;;18.13;;
6197;SDS011;3132;42.622;23.328;2023-12-07T08:50:59;18.67;;;16.73;;
6197;SDS011;3132;42.622;23.328;2023-12-07T08:53:24;19.40;;;17.33;;
6197;SDS011;3132;42.622;23.328;2023-12-07T08:55:51;19.77;;;16.47;;
6197;SDS011;3132;42.622;23.328;2023-12-07T08:58:17;18.93;;;17.23;;
6197;SDS011;3132;42.622;23.328;2023-12-07T09:00:42;26.30;;;19.03;;
6197;SDS011;3132;42.622;23.328;2023-12-07T09:03:08;20.37;;;18.10;;
6197;SDS011;3132;42.622;23.328;2023-12-07T09:05:34;19.57;;;17.67;;
6197;SDS011;3132;42.622;23.328;2023-12-07T09:07:59;17.73;;;15.93;;
6197;SDS011;3132;42.622;23.328;2023-12-07T09:10:24;16.20;;;14.80;;
6197;SDS011;3132;42.622;23.328;2023-12-07T09:12:50;19.10;;;17.27;;
6197;SDS011;3132;42.622;23.328;2023-12-07T09:15:15;17.93;;;16.63;;
6197;SDS011;3132;42.622;23.328;2023-12-07T09:17:41;18.93;;;17.07;;
6197;SDS011;3132;42.622;23.328;2023-12-07T09:20:07;15.27;;;13.97;;
6197;SDS011;3132;42.622;23.328;2023-12-07T09:22:43;16.80;;;15.30;;
6197;SDS011;3132;42.622;23.328;2023-12-07T09:25:09;16.73;;;15.13;;
6197;SDS011;3132;42.622;23.328;2023-12-07T09:27:35;15.37;;;14.07;;
6197;SDS011;3132;42.622;23.328;2023-12-07T09:30:03;16.07;;;14.77;;
6197;SDS011;3132;42.622;23.328;2023-12-07T09:32:32;13.47;;;12.40;;
6197;SDS011;3132;42.622;23.328;2023-12-07T09:35:03;15.17;;;13.83;;
6197;SDS011;3132;42.622;23.328;2023-12-07T09:37:33;13.77;;;12.87;;
6197;SDS011;3132;42.622;23.328;2023-12-07T09:39:59;14.33;;;13.33;;
6197;SDS011;3132;42.622;23.328;2023-12-07T09:42:26;12.53;;;11.83;;
6197;SDS011;3132;42.622;23.328;2023-12-07T09:44:52;12.07;;;11.47;;
6197;SDS011;3132;42.622;23.328;2023-12-07T09:47:17;12.50;;;11.70;;
6197;SDS011;3132;42.622;23.328;2023-12-07T09:49:43;11.73;;;11.13;;
6197;SDS011;3132;42.622;23.328;2023-12-07T09:52:10;12.57;;;11.67;;
6197;SDS011;3132;42.622;23.328;2023-12-07T09:54:35;12.37;;;11.67;;
6197;SDS011;3132;42.622;23.328;2023-12-07T09:57:05;13.33;;;12.50;;
6197;SDS011;3132;42.622;23.328;2023-12-07T09:59:30;12.03;;;11.37;;
6197;SDS011;3132;42.622;23.328;2023-12-07T10:01:56;13.07;;;12.27;;
6197;SDS011;3132;42.622;23.328;2023-12-07T10:04:21;12.17;;;11.57;;
6197;SDS011;3132;42.622;23.328;2023-12-07T10:06:50;12.77;;;11.63;;
6197;SDS011;3132;42.622;23.328;2023-12-07T10:09:19;12.00;;;11.30;;
6197;SDS011;3132;42.622;23.328;2023-12-07T10:11:46;10.67;;;10.17;;
6197;SDS011;3132;42.622;23.328;2023-12-07T10:14:12;11.80;;;11.20;;
6197;SDS011;3132;42.622;23.328;2023-12-07T10:16:37;12.77;;;11.97;;
6197;SDS011;3132;42.622;23.328;2023-12-07T10:19:15;12.67;;;11.97;;
6197;SDS011;3132;42.622;23.328;2023-12-07T10:21:43;10.93;;;10.23;;
6197;SDS011;3132;42.622;23.328;2023-12-07T10:24:09;11.33;;;10.73;;
6197;SDS011;3132;42.622;23.328;2023-12-07T10:26:35;11.77;;;11.10;;
6197;SDS011;3132;42.622;23.328;2023-12-07T10:29:04;11.97;;;11.27;;
6197;SDS011;3132;42.622;23.328;2023-12-07T10:31:30;12.13;;;11.43;;
6197;SDS011;3132;42.622;23.328;2023-12-07T10:33:57;11.57;;;11.07;;
6197;SDS011;3132;42.622;23.328;2023-12-07T10:36:24;11.23;;;10.53;;
6197;SDS011;3132;42.622;23.328;2023-12-07T10:38:49;9.90;;;9.50;;
6197;SDS011;3132;42.622;23.328;2023-12-07T10:41:21;12.30;;;11.33;;
6197;SDS011;3132;42.622;23.328;2023-12-07T10:43:49;10.80;;;10.30;;
6197;SDS011;3132;42.622;23.328;2023-12-07T10:46:22;14.03;;;12.90;;
6197;SDS011;3132;42.622;23.328;2023-12-07T10:48:48;11.23;;;10.67;;
6197;SDS011;3132;42.622;23.328;2023-12-07T10:51:34;13.87;;;12.97;;
6197;SDS011;3132;42.622;23.328;2023-12-07T10:54:05;14.10;;;13.10;;
6197;SDS011;3132;42.622;23.328;2023-12-07T10:56:43;11.77;;;11.03;;
6197;SDS011;3132;42.622;23.328;2023-12-07T10:59:10;12.23;;;11.53;;
6197;SDS011;3132;42.622;23.328;2023-12-07T11:01:39;14.07;;;13.03;;
6197;SDS011;3132;42.622;23.328;2023-12-07T11:04:05;14.73;;;13.43;;
6197;SDS011;3132;42.622;23.328;2023-12-07T11:06:34;12.83;;;11.93;;
6197;SDS011;3132;42.622;23.328;2023-12-07T11:09:02;13.53;;;12.63;;
6197;SDS011;3132;42.622;23.328;2023-12-07T11:11:48;10.90;;;10.40;;
6197;SDS011;3132;42.622;23.328;2023-12-07T11:14:20;10.63;;;10.13;;
6197;SDS011;3132;42.622;23.328;2023-12-07T11:16:46;10.10;;;9.60;;
6197;SDS011;3132;42.622;23.328;2023-12-07T11:22:06;11.47;;;10.77;;
6197;SDS011;3132;42.622;23.328;2023-12-07T11:24:32;10.00;;;9.50;;
6197;SDS011;3132;42.622;23.328;2023-12-07T11:26:57;11.67;;;11.07;;
6197;SDS011;3132;42.622;23.328;2023-12-07T11:29:23;10.63;;;10.03;;
6197;SDS011;3132;42.622;23.328;2023-12-07T11:31:50;11.10;;;10.60;;
6197;SDS011;3132;42.622;23.328;2023-12-07T11:37:08;12.73;;;11.93;;
6197;SDS011;3132;42.622;23.328;2023-12-07T11:39:39;11.17;;;10.53;;
6197;SDS011;3132;42.622;23.328;2023-12-07T11:42:19;11.83;;;11.20;;
6197;SDS011;3132;42.622;23.328;2023-12-07T11:44:47;11.93;;;11.37;;
6197;SDS011;3132;42.622;23.328;2023-12-07T11:47:16;12.20;;;11.60;;
6197;SDS011;3132;42.622;23.328;2023-12-07T11:49:44;11.93;;;11.40;;
6197;SDS011;3132;42.622;23.328;2023-12-07T11:52:14;12.00;;;11.40;;
6197;SDS011;3132;42.622;23.328;2023-12-07T11:54:46;10.87;;;10.40;;
6197;SDS011;3132;42.622;23.328;2023-12-07T11:57:16;11.57;;;10.90;;
6197;SDS011;3132;42.622;23.328;2023-12-07T11:59:43;10.60;;;10.20;;
6197;SDS011;3132;42.622;23.328;2023-12-07T12:02:13;10.63;;;9.93;;
6197;SDS011;3132;42.622;23.328;2023-12-07T12:04:41;12.00;;;11.40;;
6197;SDS011;3132;42.622;23.328;2023-12-07T12:07:07;11.70;;;11.00;;
6197;SDS011;3132;42.622;23.328;2023-12-07T12:09:33;13.00;;;12.20;;
6197;SDS011;3132;42.622;23.328;2023-12-07T12:11:59;28.37;;;19.80;;
6197;SDS011;3132;42.622;23.328;2023-12-07T12:14:25;13.57;;;12.47;;
6197;SDS011;3132;42.622;23.328;2023-12-07T12:16:51;17.03;;;15.30;;
6197;SDS011;3132;42.622;23.328;2023-12-07T12:19:16;13.00;;;11.90;;
6197;SDS011;3132;42.622;23.328;2023-12-07T12:21:42;10.60;;;10.17;;
6197;SDS011;3132;42.622;23.328;2023-12-07T12:24:08;12.27;;;11.67;;
6197;SDS011;3132;42.622;23.328;2023-12-07T12:26:34;12.90;;;12.00;;
6197;SDS011;3132;42.622;23.328;2023-12-07T12:29:03;12.27;;;11.57;;
6197;SDS011;3132;42.622;23.328;2023-12-07T12:31:29;12.00;;;11.40;;
6197;SDS011;3132;42.622;23.328;2023-12-07T12:33:55;12.07;;;11.40;;
6197;SDS011;3132;42.622;23.328;2023-12-07T12:36:20;12.93;;;12.20;;
6197;SDS011;3132;42.622;23.328;2023-12-07T12:38:52;12.37;;;11.57;;
6197;SDS011;3132;42.622;23.328;2023-12-07T12:41:18;11.57;;;10.87;;
6197;SDS011;3132;42.622;23.328;2023-12-07T12:43:44;11.00;;;10.20;;
6197;SDS011;3132;42.622;23.328;2023-12-07T12:46:10;12.67;;;12.07;;
6197;SDS011;3132;42.622;23.328;2023-12-07T12:48:36;10.93;;;10.33;;
6197;SDS011;3132;42.622;23.328;2023-12-07T12:51:08;11.57;;;10.97;;
6197;SDS011;3132;42.622;23.328;2023-12-07T12:53:41;12.47;;;11.77;;
6197;SDS011;3132;42.622;23.328;2023-12-07T12:56:10;12.10;;;11.50;;
6197;SDS011;3132;42.622;23.328;2023-12-07T12:58:36;12.17;;;11.47;;
6197;SDS011;3132;42.622;23.328;2023-12-07T13:01:02;10.67;;;9.87;;
6197;SDS011;3132;42.622;23.328;2023-12-07T13:03:28;11.07;;;10.57;;
6197;SDS011;3132;42.622;23.328;2023-12-07T13:05:54;12.43;;;11.83;;
6197;SDS011;3132;42.622;23.328;2023-12-07T13:08:19;15.23;;;14.43;;
6197;SDS011;3132;42.622;23.328;2023-12-07T13:10:45;11.37;;;10.77;;
6197;SDS011;3132;42.622;23.328;2023-12-07T13:13:10;13.57;;;12.87;;
6197;SDS011;3132;42.622;23.328;2023-12-07T13:15:35;10.47;;;9.97;;
6197;SDS011;3132;42.622;23.328;2023-12-07T13:18:01;11.60;;;11.00;;
6197;SDS011;3132;42.622;23.328;2023-12-07T13:20:26;13.63;;;12.73;;
6197;SDS011;3132;42.622;23.328;2023-12-07T13:22:51;12.67;;;11.87;;
6197;SDS011;3132;42.622;23.328;2023-12-07T13:25:17;11.90;;;11.10;;
6197;SDS011;3132;42.622;23.328;2023-12-07T13:27:42;13.07;;;12.07;;
6197;SDS011;3132;42.622;23.328;2023-12-07T13:30:08;16.30;;;14.60;;
6197;SDS011;3132;42.622;23.328;2023-12-07T13:32:34;17.20;;;15.47;;
6197;SDS011;3132;42.622;23.328;2023-12-07T13:35:02;13.27;;;12.37;;
6197;SDS011;3132;42.622;23.328;2023-12-07T13:37:28;12.27;;;11.60;;
6197;SDS011;3132;42.622;23.328;2023-12-07T13:39:53;12.13;;;11.53;;
6197;SDS011;3132;42.622;23.328;2023-12-07T13:42:23;13.53;;;12.83;;
6197;SDS011;3132;42.622;23.328;2023-12-07T13:44:52;12.93;;;12.17;;
6197;SDS011;3132;42.622;23.328;2023-12-07T13:47:18;14.07;;;13.30;;
6197;SDS011;3132;42.622;23.328;2023-12-07T13:49:45;12.83;;;12.03;;
6197;SDS011;3132;42.622;23.328;2023-12-07T13:52:10;13.23;;;12.33;;
6197;SDS011;3132;42.622;23.328;2023-12-07T13:54:36;12.67;;;11.87;;
6197;SDS011;3132;42.622;23.328;2023-12-07T13:57:01;13.87;;;12.97;;
6197;SDS011;3132;42.622;23.328;2023-12-07T13:59:28;12.63;;;11.80;;
6197;SDS011;3132;42.622;23.328;2023-12-07T14:01:54;12.57;;;11.87;;
6197;SDS011;3132;42.622;23.328;2023-12-07T14:04:20;12.13;;;11.43;;
6197;SDS011;3132;42.622;23.328;2023-12-07T14:06:46;13.57;;;12.60;;
6197;SDS011;3132;42.622;23.328;2023-12-07T14:09:11;13.37;;;12.57;;
6197;SDS011;3132;42.622;23.328;2023-12-07T14:11:36;12.67;;;11.73;;
6197;SDS011;3132;42.622;23.328;2023-12-07T14:14:02;13.90;;;12.87;;
6197;SDS011;3132;42.622;23.328;2023-12-07T14:16:28;13.73;;;12.73;;
6197;SDS011;3132;42.622;23.328;2023-12-07T14:18:54;12.90;;;12.00;;
6197;SDS011;3132;42.622;23.328;2023-12-07T14:21:19;11.30;;;10.70;;
6197;SDS011;3132;42.622;23.328;2023-12-07T14:23:45;11.03;;;10.53;;
6197;SDS011;3132;42.622;23.328;2023-12-07T14:26:11;12.27;;;11.47;;
6197;SDS011;3132;42.622;23.328;2023-12-07T14:28:36;12.33;;;11.63;;
6197;SDS011;3132;42.622;23.328;2023-12-07T14:31:02;15.53;;;14.30;;
6197;SDS011;3132;42.622;23.328;2023-12-07T14:33:29;14.37;;;13.20;;
6197;SDS011;3132;42.622;23.328;2023-12-07T14:35:54;13.67;;;12.77;;